Time;durP1;ratioP1;P1;durP2;ratioP2;P2;SDS_P1;SDS_P2;PMS_P1;PMS_P2;Temp;Humidity;BMP_temperature;BMP_pressure;BME280_temperature;BME280_humidity;BME280_pressure;Samples;Min_cycle;Max_cycle;Signal;HPM_P1;HPM_P2
2021/05/04 00:01:24;;;;;;;19.27;7.53;;;;;;;5.54;93.21;96067.31;5079433;28;20202;-72
2021/05/04 00:03:50;;;;;;;16.27;7.27;;;;;;;5.58;93.12;96068.66;5079337;28;20234;-72
2021/05/04 00:06:16;;;;;;;16.90;7.90;;;;;;;5.51;93.42;96059.78;5079069;28;21176;-72
2021/05/04 00:08:42;;;;;;;15.67;7.70;;;;;;;5.58;92.19;96057.38;5079116;28;20220;-72
2021/05/04 00:11:08;;;;;;;14.73;7.80;;;;;;;5.58;92.33;96060.81;5079070;28;20203;-72
2021/05/04 00:13:34;;;;;;;14.03;6.97;;;;;;;5.66;91.92;96057.44;5078871;28;20636;-72
2021/05/04 00:16:00;;;;;;;11.37;7.13;;;;;;;5.65;91.86;96047.94;5078729;28;20334;-73
2021/05/04 00:18:26;;;;;;;17.97;7.23;;;;;;;5.63;92.27;96040.25;5078745;28;20231;-72
2021/05/04 00:20:52;;;;;;;15.70;7.47;;;;;;;5.65;92.03;96047.94;5078978;28;20208;-72
2021/05/04 00:23:18;;;;;;;12.97;6.77;;;;;;;5.65;91.97;96034.88;5078693;28;20207;-72
2021/05/04 00:25:44;;;;;;;16.37;7.50;;;;;;;5.50;90.91;96029.38;5077161;28;20204;-72
2021/05/04 00:28:10;;;;;;;9.90;6.40;;;;;;;5.41;91.64;96024.25;5078259;28;20323;-72
2021/05/04 00:30:36;;;;;;;11.97;5.90;;;;;;;5.07;92.12;96019.88;5078801;28;20295;-72
2021/05/04 00:33:02;;;;;;;14.87;6.47;;;;;;;5.10;93.03;96017.75;5078407;28;20380;-72
2021/05/04 00:35:29;;;;;;;11.33;6.67;;;;;;;5.10;92.62;96020.38;5077944;28;20230;-72
2021/05/04 00:37:55;;;;;;;12.83;6.43;;;;;;;5.04;92.56;96014.91;5077916;28;20254;-72
2021/05/04 00:40:21;;;;;;;10.87;6.30;;;;;;;5.10;91.51;96015.16;5078828;28;21577;-72
2021/05/04 00:42:48;;;;;;;9.27;5.97;;;;;;;4.86;92.54;96011.47;5078668;28;20207;-72
2021/05/04 00:45:14;;;;;;;11.50;6.77;;;;;;;4.66;94.52;96011.75;5077616;28;20200;-72
2021/05/04 00:47:40;;;;;;;12.13;6.97;;;;;;;4.52;96.19;96012.25;5079415;28;20210;-72
2021/05/04 00:50:07;;;;;;;12.07;6.77;;;;;;;4.68;95.70;96007.22;5078642;28;20713;-72
2021/05/04 00:52:35;;;;;;;9.37;6.60;;;;;;;4.68;95.92;96002.81;5077973;28;20237;-72
2021/05/04 00:55:03;;;;;;;11.23;6.53;;;;;;;4.70;96.32;96006.09;5077550;28;20423;-72
2021/05/04 00:57:31;;;;;;;11.00;6.87;;;;;;;4.71;96.74;96002.53;5079194;28;20258;-72
2021/05/04 00:59:59;;;;;;;12.53;6.97;;;;;;;4.79;97.10;95993.97;5078193;28;20223;-72
2021/05/04 01:02:25;;;;;;;11.33;7.03;;;;;;;4.89;96.56;95998.97;5078184;28;20211;-72
2021/05/04 01:04:51;;;;;;;13.27;7.53;;;;;;;4.85;96.18;95999.41;5078270;28;20210;-72
2021/05/04 01:07:17;;;;;;;13.23;8.00;;;;;;;4.78;96.95;95993.13;5077758;28;20726;-72
2021/05/04 01:09:45;;;;;;;15.90;8.60;;;;;;;4.72;98.07;95993.72;5077426;28;20233;-72
2021/05/04 01:12:11;;;;;;;15.17;7.97;;;;;;;4.76;97.95;95989.03;5078324;28;20887;-72
2021/05/04 01:14:37;;;;;;;15.33;7.60;;;;;;;4.78;97.41;95987.09;5077815;28;20223;-72
2021/05/04 01:17:03;;;;;;;12.90;7.73;;;;;;;4.80;97.27;95977.31;5077436;28;20357;-72
2021/05/04 01:19:29;;;;;;;14.53;8.07;;;;;;;4.75;98.10;95985.63;5077839;28;21010;-72
2021/05/04 01:21:56;;;;;;;13.27;8.17;;;;;;;4.61;98.63;95980.91;5078080;28;20200;-72
2021/05/04 01:24:22;;;;;;;15.93;8.37;;;;;;;4.60;99.19;95979.25;5077259;28;20200;-72
2021/05/04 01:26:48;;;;;;;16.90;8.17;;;;;;;4.65;100.00;95987.47;5073870;28;20291;-72
2021/05/04 01:29:15;;;;;;;14.07;7.93;;;;;;;4.65;100.00;95974.41;5077858;28;20223;-72
2021/05/04 01:31:42;;;;;;;14.90;7.93;;;;;;;4.54;100.00;95968.59;5077812;28;20250;-72
2021/05/04 01:34:09;;;;;;;13.70;7.80;;;;;;;4.68;100.00;95974.09;5077259;28;20909;-72
2021/05/04 01:36:35;;;;;;;14.17;8.30;;;;;;;4.74;100.00;95967.50;5077075;28;20348;-72
2021/05/04 01:39:04;;;;;;;13.40;7.30;;;;;;;4.71;100.00;95971.22;5076256;28;20220;-72
2021/05/04 01:41:30;;;;;;;12.27;7.37;;;;;;;4.80;100.00;95964.28;5077321;28;20264;-72
2021/05/04 01:43:57;;;;;;;11.03;7.33;;;;;;;4.82;99.20;95958.78;5077376;28;20200;-72
2021/05/04 01:46:23;;;;;;;13.63;7.33;;;;;;;4.76;99.02;95947.28;5076750;28;20248;-72
2021/05/04 01:48:49;;;;;;;14.23;7.87;;;;;;;4.81;99.02;95950.25;5077138;28;20278;-72
2021/05/04 01:51:16;;;;;;;13.47;7.70;;;;;;;4.74;98.41;95944.81;5077337;28;20673;-72
2021/05/04 01:53:42;;;;;;;14.47;7.57;;;;;;;4.75;98.62;95948.22;5077328;28;20207;-72
2021/05/04 01:56:09;;;;;;;11.53;6.87;;;;;;;4.72;98.57;95951.16;5076042;28;20247;-72
2021/05/04 01:58:35;;;;;;;13.83;8.17;;;;;;;4.63;99.21;95942.41;5078083;28;20731;-72
2021/05/04 02:01:01;;;;;;;12.77;7.90;;;;;;;4.70;98.36;95947.84;5077052;28;20195;-72
2021/05/04 02:03:27;;;;;;;12.93;7.30;;;;;;;4.79;98.32;95947.00;5076741;28;20261;-72
2021/05/04 02:05:53;;;;;;;13.50;7.33;;;;;;;4.78;97.75;95934.91;5076355;28;20196;-72
2021/05/04 02:08:19;;;;;;;13.13;8.07;;;;;;;4.85;97.93;95937.59;5077049;28;20195;-72
2021/05/04 02:10:45;;;;;;;14.33;7.90;;;;;;;4.80;98.31;95935.56;5076819;28;20200;-72
2021/05/04 02:13:11;;;;;;;13.77;7.67;;;;;;;4.79;98.15;95928.72;5076993;28;20291;-72
2021/05/04 02:15:37;;;;;;;10.27;6.73;;;;;;;4.83;98.24;95923.84;5076397;28;20228;-72
2021/05/04 02:18:04;;;;;;;11.93;7.57;;;;;;;4.86;98.24;95923.56;5077200;28;20210;-72
2021/05/04 02:20:30;;;;;;;12.13;7.70;;;;;;;4.83;97.96;95915.22;5076722;28;20208;-72
2021/05/04 02:22:56;;;;;;;11.80;7.23;;;;;;;4.84;98.60;95909.84;5076676;28;21053;-72
2021/05/04 02:25:22;;;;;;;11.67;7.37;;;;;;;4.77;98.25;95909.78;5074462;28;20234;-72
2021/05/04 02:27:48;;;;;;;14.13;7.40;;;;;;;4.83;98.57;95902.97;5076273;28;20214;-72
2021/05/04 02:30:16;;;;;;;11.70;7.20;;;;;;;4.80;98.70;95901.63;5077324;28;20246;-71
2021/05/04 02:32:42;;;;;;;11.53;7.07;;;;;;;4.75;99.49;95906.47;5076664;28;20682;-72
2021/05/04 02:35:10;;;;;;;12.83;8.03;;;;;;;4.73;99.16;95904.03;5075538;28;20230;-72
2021/05/04 02:37:35;;;;;;;27.13;12.10;;;;;;;4.72;99.85;95898.97;5076929;28;20211;-72
2021/05/04 02:40:02;;;;;;;28.77;13.00;;;;;;;4.76;99.49;95900.28;5074069;28;20642;-71
2021/05/04 02:42:28;;;;;;;32.87;15.77;;;;;;;4.85;98.84;95884.56;5076471;28;20269;-72
2021/05/04 02:44:54;;;;;;;40.80;20.53;;;;;;;4.77;98.92;95894.91;5076665;28;20648;-72
2021/05/04 02:47:20;;;;;;;34.50;16.80;;;;;;;4.73;99.83;95888.38;5076047;28;20215;-72
2021/05/04 02:49:46;;;;;;;17.50;10.13;;;;;;;4.82;99.69;95884.84;5077520;28;20784;-72
2021/05/04 02:52:12;;;;;;;12.57;7.93;;;;;;;4.81;98.85;95888.44;5080412;28;20291;-72
2021/05/04 02:54:38;;;;;;;13.53;7.90;;;;;;;4.74;99.64;95881.38;5081085;28;20934;-72
2021/05/04 02:57:05;;;;;;;13.23;8.00;;;;;;;4.68;99.17;95877.56;5079438;28;20207;-72
2021/05/04 02:59:31;;;;;;;12.43;7.70;;;;;;;4.68;99.58;95877.56;5080553;28;20235;-72
2021/05/04 03:01:57;;;;;;;14.77;7.27;;;;;;;4.68;99.64;95876.75;5081159;28;20378;-72
2021/05/04 03:04:23;;;;;;;12.40;7.40;;;;;;;4.75;100.00;95872.56;5079715;28;20195;-72
2021/05/04 03:06:49;;;;;;;12.83;7.67;;;;;;;4.71;100.00;95873.81;5080017;28;20210;-72
2021/05/04 03:09:15;;;;;;;13.03;7.23;;;;;;;4.74;100.00;95874.34;5080525;28;20224;-72
2021/05/04 03:11:41;;;;;;;12.07;7.70;;;;;;;4.82;100.00;95868.38;5080682;28;20220;-72
2021/05/04 03:14:07;;;;;;;23.70;10.67;;;;;;;4.73;100.00;95861.47;5080390;28;20296;-72
2021/05/04 03:16:33;;;;;;;16.83;9.47;;;;;;;4.82;100.00;95864.81;5076627;28;20311;-72
2021/05/04 03:18:59;;;;;;;20.57;9.43;;;;;;;4.94;100.00;95857.56;5080736;28;20220;-72
2021/05/04 03:21:27;;;;;;;18.53;9.43;;;;;;;4.95;100.00;95851.34;5079673;28;20227;-72
2021/05/04 03:23:53;;;;;;;13.90;7.90;;;;;;;4.89;100.00;95844.94;5079739;28;20200;-73
2021/05/04 03:26:19;;;;;;;16.30;7.63;;;;;;;4.91;99.82;95848.25;5077277;28;20623;-72
2021/05/04 03:28:45;;;;;;;14.80;7.83;;;;;;;4.93;99.48;95838.44;5079542;28;20316;-72
2021/05/04 03:31:11;;;;;;;12.73;7.93;;;;;;;4.91;100.00;95836.97;5080403;28;20244;-72
2021/05/04 03:33:37;;;;;;;11.73;7.40;;;;;;;4.94;100.00;95839.28;5079732;28;20298;-72
2021/05/04 03:36:03;;;;;;;11.23;7.00;;;;;;;4.88;100.00;95829.44;5079275;28;20251;-72
2021/05/04 03:38:30;;;;;;;12.00;7.70;;;;;;;4.92;99.21;95831.56;5079657;28;20227;-72
2021/05/04 03:40:56;;;;;;;11.80;7.77;;;;;;;4.97;99.69;95836.34;5080302;28;20730;-72
2021/05/04 03:43:22;;;;;;;15.70;7.60;;;;;;;4.88;100.00;95832.06;5079671;28;20203;-72
2021/05/04 03:45:48;;;;;;;13.17;8.27;;;;;;;4.85;100.00;95827.16;5079203;28;20306;-72
2021/05/04 03:48:14;;;;;;;15.67;8.80;;;;;;;4.95;100.00;95826.06;5079256;28;20240;-72
2021/05/04 03:50:40;;;;;;;13.63;8.03;;;;;;;5.00;99.33;95826.44;5080409;28;20204;-72
2021/05/04 03:53:07;;;;;;;16.63;8.17;;;;;;;4.62;100.00;95831.22;5079140;28;20585;-72
2021/05/04 03:55:34;;;;;;;13.60;7.47;;;;;;;4.71;100.00;95834.69;5078632;28;20915;-72
2021/05/04 03:58:00;;;;;;;13.27;7.10;;;;;;;4.68;100.00;95840.22;5078952;28;20196;-72
2021/05/04 04:00:26;;;;;;;11.60;7.10;;;;;;;4.58;100.00;95840.31;5079349;28;20224;-72
2021/05/04 04:02:52;;;;;;;12.30;7.47;;;;;;;4.54;100.00;95836.34;5078874;28;20572;-72
2021/05/04 04:05:19;;;;;;;12.73;7.07;;;;;;;4.61;100.00;95829.56;5078458;28;20234;-72
2021/05/04 04:07:45;;;;;;;11.83;7.63;;;;;;;4.61;100.00;95828.72;5079346;28;20199;-71
2021/05/04 04:10:12;;;;;;;14.33;7.53;;;;;;;4.63;100.00;95832.00;5078659;28;20315;-72
2021/05/04 04:12:39;;;;;;;13.23;7.43;;;;;;;4.46;100.00;95827.63;5079121;28;21103;-72
2021/05/04 04:15:06;;;;;;;13.20;7.20;;;;;;;4.39;100.00;95822.19;5078511;28;20311;-72
2021/05/04 04:17:32;;;;;;;11.07;7.00;;;;;;;4.42;100.00;95808.84;5078909;28;20207;-72
2021/05/04 04:19:58;;;;;;;15.63;8.63;;;;;;;4.24;100.00;95804.63;5079378;28;20220;-72
2021/05/04 04:22:25;;;;;;;16.23;8.23;;;;;;;4.26;100.00;95802.66;5079881;28;20977;-72
2021/05/04 04:24:53;;;;;;;21.20;8.83;;;;;;;4.43;100.00;95796.63;5078414;28;20196;-72
2021/05/04 04:27:20;;;;;;;17.57;9.13;;;;;;;4.48;100.00;95797.81;5076245;28;20200;-72
2021/05/04 04:29:47;;;;;;;19.03;9.43;;;;;;;4.55;100.00;95792.81;5079195;28;20219;-72
2021/05/04 04:32:13;;;;;;;14.53;8.63;;;;;;;4.62;100.00;95793.84;5078944;28;20196;-72
2021/05/04 04:34:39;;;;;;;14.57;8.10;;;;;;;4.75;100.00;95787.25;5078568;28;20227;-73
2021/05/04 04:37:05;;;;;;;15.83;8.00;;;;;;;4.84;100.00;95794.19;5077697;28;20295;-73
2021/05/04 04:39:31;;;;;;;13.33;8.07;;;;;;;4.89;100.00;95787.53;5077902;28;20235;-72
2021/05/04 04:41:58;;;;;;;13.43;8.23;;;;;;;4.97;100.00;95792.78;5078656;28;21307;-72
2021/05/04 04:44:24;;;;;;;14.27;8.17;;;;;;;5.06;100.00;95789.25;5078474;28;20261;-72
2021/05/04 04:46:51;;;;;;;16.27;8.83;;;;;;;5.14;100.00;95785.88;5077634;28;20652;-72
2021/05/04 04:49:19;;;;;;;13.90;8.37;;;;;;;5.25;100.00;95783.81;5078094;28;20273;-72
2021/05/04 04:51:46;;;;;;;12.60;8.07;;;;;;;5.37;100.00;95782.53;5078524;28;21106;-72
2021/05/04 04:54:12;;;;;;;11.93;7.77;;;;;;;5.39;100.00;95783.22;5077510;28;20200;-72
2021/05/04 04:56:40;;;;;;;16.93;8.63;;;;;;;5.43;100.00;95781.94;5077420;28;20219;-72
2021/05/04 04:59:06;;;;;;;14.83;8.40;;;;;;;5.55;100.00;95780.69;5078784;28;20721;-72
2021/05/04 05:01:33;;;;;;;13.47;8.27;;;;;;;5.33;100.00;95786.44;5078025;28;20204;-71
2021/05/04 05:04:01;;;;;;;17.97;8.70;;;;;;;5.48;100.00;95784.91;5078549;28;20253;-71
2021/05/04 05:06:27;;;;;;;18.40;9.77;;;;;;;5.55;100.00;95785.91;5077178;28;20203;-71
2021/05/04 05:08:53;;;;;;;18.53;9.60;;;;;;;5.63;100.00;95785.94;5077990;28;20975;-71
2021/05/04 05:11:20;;;;;;;14.93;8.77;;;;;;;5.71;100.00;95772.91;5077582;28;20265;-71
2021/05/04 05:13:46;;;;;;;16.70;8.80;;;;;;;5.69;100.00;95778.28;5077453;28;20207;-71
2021/05/04 05:16:13;;;;;;;13.23;7.87;;;;;;;5.66;100.00;95780.38;5076742;28;20250;-71
2021/05/04 05:18:39;;;;;;;11.90;8.17;;;;;;;5.63;100.00;95778.09;5077508;28;20774;-71
2021/05/04 05:21:07;;;;;;;18.57;8.63;;;;;;;5.72;100.00;95777.16;5078019;28;20726;-71
2021/05/04 05:23:34;;;;;;;13.30;7.37;;;;;;;5.81;100.00;95771.00;5077596;28;20200;-71
2021/05/04 05:26:00;;;;;;;14.80;7.80;;;;;;;5.78;100.00;95779.13;5074497;28;20196;-71
2021/05/04 05:28:26;;;;;;;12.33;7.90;;;;;;;5.71;100.00;95771.09;5077368;28;20219;-71
2021/05/04 05:30:52;;;;;;;16.37;8.40;;;;;;;5.79;100.00;95763.31;5077557;28;20285;-71
2021/05/04 05:33:19;;;;;;;13.97;8.00;;;;;;;5.90;100.00;95755.16;5077342;28;20651;-71
2021/05/04 05:35:45;;;;;;;13.83;7.63;;;;;;;5.95;100.00;95749.47;5077296;28;20220;-71
2021/05/04 05:38:12;;;;;;;11.53;6.37;;;;;;;6.06;100.00;95750.78;5077254;28;20210;-71
2021/05/04 05:40:38;;;;;;;12.27;7.20;;;;;;;6.18;100.00;95739.00;5078087;28;20204;-71
2021/05/04 05:43:04;;;;;;;11.57;7.00;;;;;;;6.31;100.00;95742.00;5076888;28;20319;-71
2021/05/04 05:45:30;;;;;;;12.17;6.87;;;;;;;6.50;100.00;95735.59;5077185;28;20203;-70
2021/05/04 05:47:56;;;;;;;13.57;7.20;;;;;;;6.71;100.00;95732.31;5077217;28;20389;-71
2021/05/04 05:50:22;;;;;;;17.10;6.70;;;;;;;6.82;98.81;95723.28;5077556;28;20270;-72
2021/05/04 05:52:48;;;;;;;17.87;7.70;;;;;;;7.01;96.38;95728.16;5077302;28;20203;-71
2021/05/04 05:55:15;;;;;;;13.73;7.30;;;;;;;7.09;96.50;95718.47;5076480;28;20338;-72
2021/05/04 05:57:41;;;;;;;13.83;7.77;;;;;;;7.26;95.82;95723.47;5077323;28;20203;-71
2021/05/04 06:00:09;;;;;;;14.53;8.00;;;;;;;7.40;97.42;95717.53;5076959;28;20211;-71
2021/05/04 06:02:35;;;;;;;23.00;10.20;;;;;;;7.41;95.98;95720.97;5076855;28;20200;-72
2021/05/04 06:05:01;;;;;;;15.10;9.13;;;;;;;7.34;97.60;95714.78;5076947;28;20208;-72
2021/05/04 06:07:27;;;;;;;19.13;7.50;;;;;;;7.51;95.10;95722.41;5076191;28;20284;-71
2021/05/04 06:09:53;;;;;;;10.90;6.70;;;;;;;7.53;94.60;95717.78;5077065;28;20219;-72
2021/05/04 06:12:21;;;;;;;9.70;6.13;;;;;;;7.60;94.40;95718.75;5077494;28;20261;-71
2021/05/04 06:14:47;;;;;;;15.13;6.50;;;;;;;7.66;96.73;95720.72;5076279;28;20857;-71
2021/05/04 06:17:13;;;;;;;13.93;6.53;;;;;;;7.73;95.49;95711.16;5075787;28;20286;-71
2021/05/04 06:19:39;;;;;;;9.47;6.20;;;;;;;7.81;94.78;95713.72;5077411;28;20310;-71
2021/05/04 06:22:05;;;;;;;11.13;6.07;;;;;;;7.85;94.03;95716.81;5077020;28;20207;-71
2021/05/04 06:24:31;;;;;;;9.73;6.30;;;;;;;7.97;92.80;95714.44;5076678;28;20261;-72
2021/05/04 06:26:57;;;;;;;10.50;6.70;;;;;;;8.01;91.89;95717.53;5074668;28;20200;-71
2021/05/04 06:29:24;;;;;;;9.63;6.17;;;;;;;8.19;90.03;95712.84;5076480;28;21102;-72
2021/05/04 06:31:51;;;;;;;9.93;6.67;;;;;;;8.29;90.46;95714.25;5077098;28;20570;-71
2021/05/04 06:34:17;;;;;;;10.67;6.83;;;;;;;8.35;89.68;95703.06;5076794;28;20196;-72
2021/05/04 06:36:43;;;;;;;13.07;6.73;;;;;;;8.42;88.45;95708.41;5076505;28;20716;-72
2021/05/04 06:39:09;;;;;;;10.43;6.90;;;;;;;8.63;87.91;95701.47;5076301;28;20322;-72
2021/05/04 06:41:36;;;;;;;11.57;6.80;;;;;;;8.76;87.42;95699.88;5077325;28;20237;-71
2021/05/04 06:44:02;;;;;;;12.97;6.77;;;;;;;8.87;85.53;95694.22;5076545;28;20577;-72
2021/05/04 06:46:29;;;;;;;9.43;6.40;;;;;;;8.96;85.18;95692.28;5075426;28;20200;-71
2021/05/04 06:48:55;;;;;;;12.10;6.70;;;;;;;9.10;84.60;95690.50;5076700;28;20283;-71
2021/05/04 06:51:21;;;;;;;9.30;5.83;;;;;;;9.31;83.39;95682.69;5076940;28;20206;-72
2021/05/04 06:53:47;;;;;;;7.80;5.03;;;;;;;9.49;82.40;95683.13;5075269;28;20218;-71
2021/05/04 06:56:13;;;;;;;9.53;5.83;;;;;;;9.75;81.74;95673.72;5075762;28;20239;-71
2021/05/04 06:58:39;;;;;;;8.53;5.30;;;;;;;10.01;80.12;95670.59;5076536;28;20257;-72
2021/05/04 07:01:05;;;;;;;8.93;5.50;;;;;;;10.28;79.06;95662.75;5076617;28;20234;-72
2021/05/04 07:03:32;;;;;;;10.23;6.13;;;;;;;10.56;79.61;95658.34;5075948;28;20227;-73
2021/05/04 07:05:58;;;;;;;9.27;5.77;;;;;;;10.72;78.05;95655.44;5075849;28;20257;-72
2021/05/04 07:08:24;;;;;;;6.83;5.03;;;;;;;10.89;76.71;95654.94;5076410;28;20242;-72
2021/05/04 07:10:50;;;;;;;8.47;4.87;;;;;;;11.00;75.41;95652.59;5076254;28;20677;-71
2021/05/04 07:13:16;;;;;;;6.23;4.70;;;;;;;10.96;72.93;95658.47;5077163;28;20876;-71
2021/05/04 07:15:42;;;;;;;6.33;4.97;;;;;;;11.16;72.20;95656.72;5075105;28;20227;-72
2021/05/04 07:18:10;;;;;;;8.23;5.17;;;;;;;11.32;73.31;95654.59;5076616;28;20641;-71
2021/05/04 07:20:37;;;;;;;10.37;4.83;;;;;;;11.50;74.64;95652.28;5076658;28;20235;-72
2021/05/04 07:23:07;;;;;;;7.47;4.90;;;;;;;11.73;72.85;95647.50;5077548;28;20207;-72
2021/05/04 07:25:33;;;;;;;6.83;4.77;;;;;;;11.90;72.71;95643.47;5075825;28;20234;-69
2021/05/04 07:27:59;;;;;;;6.20;3.37;;;;;;;12.10;69.22;95644.34;5077861;28;20411;-70
2021/05/04 07:30:25;;;;;;;6.03;4.23;;;;;;;12.30;68.74;95636.25;5078635;28;20231;-72
2021/05/04 07:32:51;;;;;;;6.30;4.17;;;;;;;12.43;68.02;95641.53;5077550;28;20669;-70
2021/05/04 07:35:17;;;;;;;5.33;3.70;;;;;;;12.55;64.75;95633.81;5078315;28;20231;-69
2021/05/04 07:37:44;;;;;;;6.93;3.37;;;;;;;12.54;63.81;95627.72;5086161;28;20207;-72
2021/05/04 07:40:11;;;;;;;6.93;3.03;;;;;;;12.51;63.31;95622.84;5082712;28;20417;-70
2021/05/04 07:42:37;;;;;;;4.37;3.23;;;;;;;12.46;60.28;95614.72;5083386;28;20257;-68
2021/05/04 07:45:04;;;;;;;4.53;3.00;;;;;;;12.57;61.66;95615.94;5083464;28;20200;-67
2021/05/04 07:47:30;;;;;;;3.00;2.53;;;;;;;12.59;60.93;95613.88;5081518;28;20204;-70
2021/05/04 07:49:57;;;;;;;4.93;2.73;;;;;;;12.64;61.28;95609.63;5082692;28;20314;-67
2021/05/04 07:52:24;;;;;;;5.57;3.47;;;;;;;12.61;61.16;95610.03;5081517;28;20345;-72
2021/05/04 07:54:52;;;;;;;6.17;3.73;;;;;;;12.64;58.95;95614.09;5082902;28;20204;-71
2021/05/04 07:57:18;;;;;;;3.90;2.67;;;;;;;12.74;61.45;95612.69;5080082;28;20223;-72
2021/05/04 07:59:44;;;;;;;5.40;3.40;;;;;;;12.60;62.05;95603.13;5082961;28;20223;-72
2021/05/04 08:02:10;;;;;;;8.17;3.27;;;;;;;12.71;59.97;95602.50;5080179;28;20309;-70
2021/05/04 08:04:36;;;;;;;5.17;3.30;;;;;;;12.77;60.00;95605.13;5080565;28;20214;-71
2021/05/04 08:07:06;;;;;;;7.55;3.03;;;;;;;12.85;59.01;95598.81;5079690;28;20760;-72
2021/05/04 08:09:32;;;;;;;6.57;2.90;;;;;;;12.74;58.54;95610.03;5082587;28;20228;-71
2021/05/04 08:11:59;;;;;;;3.75;2.90;;;;;;;12.73;59.11;95600.47;5080151;28;20211;-72
2021/05/04 08:14:25;;;;;;;3.60;2.83;;;;;;;12.75;59.58;95602.91;5078960;28;20578;-69
2021/05/04 08:16:52;;;;;;;6.07;2.97;;;;;;;12.73;60.18;95607.56;5079568;28;20254;-70
2021/05/04 08:19:18;;;;;;;3.38;2.72;;;;;;;12.68;60.76;95604.72;5080879;28;20235;-72
2021/05/04 08:21:44;;;;;;;5.27;2.90;;;;;;;12.68;59.72;95607.38;5079813;28;20218;-70
2021/05/04 08:24:11;;;;;;;4.70;3.03;;;;;;;12.73;59.15;95605.75;5081029;28;20693;-70
2021/05/04 08:26:38;;;;;;;4.53;2.90;;;;;;;12.85;61.18;95597.00;5076500;28;20682;-72
2021/05/04 08:29:05;;;;;;;4.30;2.70;;;;;;;12.92;59.80;95599.69;5080647;28;20720;-68
2021/05/04 08:31:31;;;;;;;5.00;3.67;;;;;;;13.05;61.07;95604.94;5079587;28;20211;-71
2021/05/04 08:33:57;;;;;;;7.03;3.20;;;;;;;13.09;59.92;95599.00;5078785;28;20215;-71
2021/05/04 08:36:23;;;;;;;5.47;2.95;;;;;;;13.16;59.55;95589.25;5079040;28;20310;-67
2021/05/04 08:38:49;;;;;;;7.63;2.55;;;;;;;13.19;59.97;95588.00;5078235;28;20220;-72
2021/05/04 08:41:16;;;;;;;4.82;2.92;;;;;;;13.25;59.08;95576.56;5079497;28;20269;-68
2021/05/04 08:43:45;;;;;;;4.32;3.25;;;;;;;13.38;59.25;95572.06;5080032;28;20206;-71
2021/05/04 08:46:13;;;;;;;2.88;2.47;;;;;;;13.56;57.90;95572.97;5081317;28;20206;-70
2021/05/04 08:48:42;;;;;;;3.58;2.70;;;;;;;13.67;55.83;95560.91;5079279;28;20231;-71
2021/05/04 08:51:08;;;;;;;5.67;3.43;;;;;;;13.69;57.36;95575.56;5079616;28;20207;-72
2021/05/04 08:53:34;;;;;;;4.10;2.72;;;;;;;13.84;55.77;95576.09;5078513;28;20452;-69
2021/05/04 08:56:00;;;;;;;5.32;3.08;;;;;;;13.92;57.00;95567.09;5079595;28;21383;-71
2021/05/04 08:58:27;;;;;;;2.88;2.22;;;;;;;13.94;54.23;95549.13;5078947;28;20318;-68
2021/05/04 09:00:54;;;;;;;5.45;2.40;;;;;;;14.05;53.33;95542.13;5079626;28;20635;-72
2021/05/04 09:03:30;;;;;;;5.22;2.42;;;;;;;14.22;54.25;95543.25;5079006;28;20207;-69
2021/05/04 09:06:01;;;;;;;5.10;3.08;;;;;;;14.29;52.31;95545.84;5079685;28;20456;-71
2021/05/04 09:08:35;;;;;;;10.00;2.90;;;;;;;14.47;52.45;95538.75;5079711;28;20226;-71
2021/05/04 09:11:27;;;;;;;3.10;2.08;;;;;;;14.61;53.29;95556.16;5083099;28;20318;-72
2021/05/04 09:13:59;;;;;;;4.57;2.53;;;;;;;14.68;53.27;95549.78;5083696;28;20210;-69
2021/05/04 09:16:31;;;;;;;4.97;2.38;;;;;;;14.71;52.87;95533.44;5078834;28;20223;-71
2021/05/04 09:19:17;;;;;;;6.25;2.13;;;;;;;14.61;52.06;95536.81;5081644;28;20319;-69
2021/05/04 09:21:44;;;;;;;5.28;2.65;;;;;;;14.66;53.46;95551.03;5081862;28;20199;-73
2021/05/04 09:24:25;;;;;;;5.38;2.67;;;;;;;14.71;52.58;95532.63;5083359;28;20200;-71
2021/05/04 09:26:58;;;;;;;4.75;2.40;;;;;;;14.75;53.13;95539.94;5079163;28;20210;-73
2021/05/04 09:29:30;;;;;;;5.97;2.50;;;;;;;14.79;52.35;95540.28;5081173;28;20230;-71
2021/05/04 09:32:11;;;;;;;5.55;2.83;;;;;;;14.96;52.52;95536.06;5079296;28;20314;-73
2021/05/04 09:34:44;;;;;;;2.90;2.00;;;;;;;14.95;53.08;95540.53;5080003;28;20211;-70
2021/05/04 09:37:36;;;;;;;2.33;1.67;;;;;;;14.95;51.93;95523.81;5081382;28;20620;-72
2021/05/04 09:40:25;;;;;;;4.35;2.47;;;;;;;14.88;51.00;95521.22;5076513;28;20224;-71
2021/05/04 09:43:13;;;;;;;4.03;2.55;;;;;;;14.94;51.23;95512.41;5079460;28;20204;-73
2021/05/04 09:45:43;;;;;;;5.05;2.72;;;;;;;15.06;51.92;95525.72;5072575;28;20200;-72
2021/05/04 09:48:15;;;;;;;3.28;2.22;;;;;;;15.06;51.42;95510.63;5078856;28;20204;-72
2021/05/04 09:50:59;;;;;;;3.05;2.17;;;;;;;15.14;50.63;95523.59;5078008;28;20200;-69
2021/05/04 09:53:34;;;;;;;5.68;2.75;;;;;;;15.31;51.91;95508.69;5077725;28;20200;-71
2021/05/04 09:56:01;;;;;;;5.70;2.50;;;;;;;15.36;50.21;95512.34;5078520;28;20833;-70
2021/05/04 09:58:38;;;;;;;3.70;2.40;;;;;;;15.29;50.04;95500.16;5080840;28;20260;-72
2021/05/04 10:01:06;;;;;;;5.45;2.58;;;;;;;15.48;50.64;95499.13;5077008;28;20199;-73
2021/05/04 10:03:34;;;;;;;2.40;1.70;;;;;;;15.49;48.93;95504.19;5078826;28;20211;-71
2021/05/04 10:06:03;;;;;;;3.25;2.22;;;;;;;15.60;50.43;95506.06;5076934;28;20200;-70
2021/05/04 10:08:32;;;;;;;4.88;2.40;;;;;;;15.46;50.70;95506.47;5081639;28;20223;-70
2021/05/04 10:11:00;;;;;;;5.25;2.50;;;;;;;15.57;50.02;95497.75;5079459;28;20200;-73
2021/05/04 10:13:28;;;;;;;6.05;2.15;;;;;;;15.57;49.96;95487.13;5078935;28;20223;-70
2021/05/04 10:15:55;;;;;;;6.88;2.70;;;;;;;15.57;49.35;95498.56;5078940;28;20216;-70
2021/05/04 10:18:22;;;;;;;7.63;2.42;;;;;;;15.57;49.92;95492.44;5080640;28;20196;-69
2021/05/04 10:20:48;;;;;;;4.88;2.17;;;;;;;15.77;48.18;95485.00;5077653;28;20199;-72
2021/05/04 10:23:16;;;;;;;7.25;2.50;;;;;;;15.84;50.49;95496.34;5079930;28;20233;-71
2021/05/04 10:25:42;;;;;;;4.68;2.50;;;;;;;15.93;51.30;95454.06;5074821;28;20257;-72
2021/05/04 10:28:10;;;;;;;4.43;2.70;;;;;;;15.93;49.71;95483.31;5076823;28;20207;-69
2021/05/04 10:30:36;;;;;;;7.93;3.00;;;;;;;15.95;50.78;95486.56;5077274;28;20211;-73
2021/05/04 10:33:09;;;;;;;4.57;2.35;;;;;;;15.90;50.04;95467.81;5079738;28;20200;-70
2021/05/04 10:35:41;;;;;;;4.20;1.70;;;;;;;15.83;48.94;95460.19;5081130;28;20224;-70
2021/05/04 10:38:08;;;;;;;5.90;2.15;;;;;;;15.92;48.16;95471.09;5080174;28;20579;-70
2021/05/04 10:40:37;;;;;;;3.70;2.50;;;;;;;16.09;48.80;95466.72;5081063;28;20620;-70
2021/05/04 10:43:39;;;;;;;5.55;2.30;;;;;;;16.23;48.55;95464.63;5080845;28;20210;-71
2021/05/04 10:46:09;;;;;;;4.90;1.90;;;;;;;16.22;48.17;95458.53;5083341;28;20206;-69
2021/05/04 10:48:49;;;;;;;4.28;2.22;;;;;;;16.29;48.52;95461.91;5082653;28;20230;-71
2021/05/04 10:51:16;;;;;;;3.88;2.80;;;;;;;16.55;48.49;95459.59;5082985;28;20195;-73
2021/05/04 10:54:05;;;;;;;7.07;2.40;;;;;;;16.57;46.93;95460.19;5081644;28;20204;-73
2021/05/04 10:56:37;;;;;;;3.10;2.42;;;;;;;16.75;48.71;95448.59;5075644;28;21055;-73
2021/05/04 10:59:05;;;;;;;6.57;2.47;;;;;;;16.92;48.70;95433.53;5077851;28;20306;-73
2021/05/04 11:01:33;;;;;;;4.43;2.45;;;;;;;16.81;46.76;95439.69;5078014;28;20204;-73
2021/05/04 11:04:00;;;;;;;3.05;1.92;;;;;;;16.89;47.23;95447.28;5079126;28;20254;-70
2021/05/04 11:06:43;;;;;;;6.38;2.00;;;;;;;17.07;46.83;95439.97;5077809;28;20359;-70
2021/05/04 11:09:14;;;;;;;2.10;1.90;;;;;;;16.99;45.40;95458.16;5080681;28;20208;-70
2021/05/04 11:11:44;;;;;;;3.28;1.90;;;;;;;16.89;46.87;95458.75;5081922;28;20564;-72
2021/05/04 11:14:21;;;;;;;4.93;2.30;;;;;;;16.84;45.82;95449.84;5087580;28;20282;-73
2021/05/04 11:17:01;;;;;;;1.80;1.58;;;;;;;16.70;46.73;95456.44;5086063;28;20227;-68
2021/05/04 11:19:30;;;;;;;3.47;1.92;;;;;;;16.50;46.27;95448.84;5081388;28;20231;-72
2021/05/04 11:22:05;;;;;;;2.00;1.75;;;;;;;16.50;46.71;95454.16;5083571;28;20211;-70
2021/05/04 11:24:41;;;;;;;6.90;2.20;;;;;;;16.35;46.00;95458.31;5087202;28;20207;-72
2021/05/04 11:27:22;;;;;;;3.35;2.05;;;;;;;16.32;46.97;95468.59;5083165;28;20204;-69
2021/05/04 11:29:50;;;;;;;4.57;2.30;;;;;;;16.43;48.43;95434.03;5083894;28;20228;-73
2021/05/04 11:32:19;;;;;;;4.10;1.95;;;;;;;16.57;47.27;95438.06;5086734;28;20462;-70
2021/05/04 11:34:47;;;;;;;3.55;2.30;;;;;;;16.55;48.01;95434.88;5085061;28;20196;-71